sensor_id;sensor_type;location;lat;lon;timestamp;P1;durP1;ratioP1;P2;durP2;ratioP2
21360;SDS011;10839;43.206;23.550;2024-03-02T00:00:51;123.53;;;38.70;;
21360;SDS011;10839;43.206;23.550;2024-03-02T00:03:17;82.57;;;35.90;;
21360;SDS011;10839;43.206;23.550;2024-03-02T00:05:43;96.70;;;36.08;;
21360;SDS011;10839;43.206;23.550;2024-03-02T00:08:13;114.18;;;35.78;;
21360;SDS011;10839;43.206;23.550;2024-03-02T00:10:49;88.25;;;34.10;;
21360;SDS011;10839;43.206;23.550;2024-03-02T00:13:15;85.88;;;36.05;;
21360;SDS011;10839;43.206;23.550;2024-03-02T00:18:13;86.82;;;35.47;;
21360;SDS011;10839;43.206;23.550;2024-03-02T00:20:41;93.85;;;34.38;;
21360;SDS011;10839;43.206;23.550;2024-03-02T00:23:08;80.05;;;34.83;;
21360;SDS011;10839;43.206;23.550;2024-03-02T00:25:38;75.60;;;35.53;;
21360;SDS011;10839;43.206;23.550;2024-03-02T00:28:10;78.03;;;36.00;;
21360;SDS011;10839;43.206;23.550;2024-03-02T00:33:13;75.97;;;36.25;;
21360;SDS011;10839;43.206;23.550;2024-03-02T00:35:38;78.80;;;35.15;;
21360;SDS011;10839;43.206;23.550;2024-03-02T00:38:07;82.95;;;34.75;;
21360;SDS011;10839;43.206;23.550;2024-03-02T00:40:32;85.65;;;34.28;;
21360;SDS011;10839;43.206;23.550;2024-03-02T00:42:58;75.40;;;33.88;;
21360;SDS011;10839;43.206;23.550;2024-03-02T00:45:24;75.30;;;33.85;;
21360;SDS011;10839;43.206;23.550;2024-03-02T00:47:51;80.18;;;34.00;;
21360;SDS011;10839;43.206;23.550;2024-03-02T00:50:17;68.93;;;30.90;;
21360;SDS011;10839;43.206;23.550;2024-03-02T00:52:42;77.97;;;33.60;;
21360;SDS011;10839;43.206;23.550;2024-03-02T00:55:08;75.32;;;34.15;;
21360;SDS011;10839;43.206;23.550;2024-03-02T00:57:34;89.25;;;32.90;;
21360;SDS011;10839;43.206;23.550;2024-03-02T01:00:00;73.25;;;33.47;;
21360;SDS011;10839;43.206;23.550;2024-03-02T01:02:26;76.80;;;33.90;;
21360;SDS011;10839;43.206;23.550;2024-03-02T01:04:51;66.75;;;31.77;;
21360;SDS011;10839;43.206;23.550;2024-03-02T01:07:17;75.72;;;31.77;;
21360;SDS011;10839;43.206;23.550;2024-03-02T01:09:43;68.97;;;31.38;;
21360;SDS011;10839;43.206;23.550;2024-03-02T01:12:08;65.15;;;29.83;;
21360;SDS011;10839;43.206;23.550;2024-03-02T01:14:34;70.07;;;32.50;;
21360;SDS011;10839;43.206;23.550;2024-03-02T01:17:00;86.25;;;30.98;;
21360;SDS011;10839;43.206;23.550;2024-03-02T01:19:28;64.18;;;29.88;;
21360;SDS011;10839;43.206;23.550;2024-03-02T01:21:54;71.68;;;31.58;;
21360;SDS011;10839;43.206;23.550;2024-03-02T01:24:20;65.90;;;31.40;;
21360;SDS011;10839;43.206;23.550;2024-03-02T01:26:45;73.93;;;31.02;;
21360;SDS011;10839;43.206;23.550;2024-03-02T01:29:11;74.68;;;31.75;;
21360;SDS011;10839;43.206;23.550;2024-03-02T01:31:36;76.50;;;30.75;;
21360;SDS011;10839;43.206;23.550;2024-03-02T01:34:01;72.43;;;31.38;;
21360;SDS011;10839;43.206;23.550;2024-03-02T01:36:27;82.18;;;31.02;;
21360;SDS011;10839;43.206;23.550;2024-03-02T01:38:52;68.35;;;30.17;;
21360;SDS011;10839;43.206;23.550;2024-03-02T01:41:18;81.97;;;30.38;;
21360;SDS011;10839;43.206;23.550;2024-03-02T01:43:43;63.38;;;30.30;;
21360;SDS011;10839;43.206;23.550;2024-03-02T01:46:09;69.88;;;30.75;;
21360;SDS011;10839;43.206;23.550;2024-03-02T01:48:35;63.00;;;29.40;;
21360;SDS011;10839;43.206;23.550;2024-03-02T01:51:00;85.78;;;33.22;;
21360;SDS011;10839;43.206;23.550;2024-03-02T01:53:26;84.13;;;33.72;;
21360;SDS011;10839;43.206;23.550;2024-03-02T01:55:53;110.18;;;38.50;;
21360;SDS011;10839;43.206;23.550;2024-03-02T01:58:18;93.35;;;36.40;;
21360;SDS011;10839;43.206;23.550;2024-03-02T02:00:44;90.43;;;36.05;;
21360;SDS011;10839;43.206;23.550;2024-03-02T02:03:10;78.40;;;32.30;;
21360;SDS011;10839;43.206;23.550;2024-03-02T02:05:35;61.78;;;30.20;;
21360;SDS011;10839;43.206;23.550;2024-03-02T02:08:01;68.80;;;31.80;;
21360;SDS011;10839;43.206;23.550;2024-03-02T02:10:26;63.70;;;30.13;;
21360;SDS011;10839;43.206;23.550;2024-03-02T02:12:52;63.17;;;31.00;;
21360;SDS011;10839;43.206;23.550;2024-03-02T02:15:28;60.60;;;29.83;;
21360;SDS011;10839;43.206;23.550;2024-03-02T02:17:55;66.22;;;28.83;;
21360;SDS011;10839;43.206;23.550;2024-03-02T02:20:22;58.13;;;28.10;;
21360;SDS011;10839;43.206;23.550;2024-03-02T02:22:57;61.50;;;29.67;;
21360;SDS011;10839;43.206;23.550;2024-03-02T02:25:24;62.47;;;28.20;;
21360;SDS011;10839;43.206;23.550;2024-03-02T02:27:49;65.85;;;30.85;;
21360;SDS011;10839;43.206;23.550;2024-03-02T02:30:22;65.43;;;30.90;;
21360;SDS011;10839;43.206;23.550;2024-03-02T02:35:14;62.97;;;29.05;;
21360;SDS011;10839;43.206;23.550;2024-03-02T02:37:40;59.97;;;28.77;;
21360;SDS011;10839;43.206;23.550;2024-03-02T02:40:06;57.50;;;29.38;;
21360;SDS011;10839;43.206;23.550;2024-03-02T02:42:32;56.35;;;28.98;;
21360;SDS011;10839;43.206;23.550;2024-03-02T02:44:58;50.85;;;27.10;;
21360;SDS011;10839;43.206;23.550;2024-03-02T02:47:23;52.20;;;28.20;;
21360;SDS011;10839;43.206;23.550;2024-03-02T02:49:49;53.35;;;28.55;;
21360;SDS011;10839;43.206;23.550;2024-03-02T02:52:14;50.58;;;27.73;;
21360;SDS011;10839;43.206;23.550;2024-03-02T02:54:40;54.85;;;28.55;;
21360;SDS011;10839;43.206;23.550;2024-03-02T02:57:05;53.35;;;28.52;;
21360;SDS011;10839;43.206;23.550;2024-03-02T02:59:31;55.03;;;28.67;;
21360;SDS011;10839;43.206;23.550;2024-03-02T03:01:56;54.95;;;27.98;;
21360;SDS011;10839;43.206;23.550;2024-03-02T03:04:22;55.83;;;28.33;;
21360;SDS011;10839;43.206;23.550;2024-03-02T03:06:47;54.80;;;29.45;;
21360;SDS011;10839;43.206;23.550;2024-03-02T03:09:12;54.05;;;28.83;;
21360;SDS011;10839;43.206;23.550;2024-03-02T03:11:38;59.47;;;30.08;;
21360;SDS011;10839;43.206;23.550;2024-03-02T03:14:03;54.40;;;28.33;;
21360;SDS011;10839;43.206;23.550;2024-03-02T03:16:30;54.45;;;27.33;;
21360;SDS011;10839;43.206;23.550;2024-03-02T03:18:55;52.50;;;27.38;;
21360;SDS011;10839;43.206;23.550;2024-03-02T03:21:21;66.30;;;31.40;;
21360;SDS011;10839;43.206;23.550;2024-03-02T03:23:46;66.50;;;30.80;;
21360;SDS011;10839;43.206;23.550;2024-03-02T03:26:12;73.68;;;36.85;;
21360;SDS011;10839;43.206;23.550;2024-03-02T03:28:38;73.13;;;35.30;;
21360;SDS011;10839;43.206;23.550;2024-03-02T03:31:04;62.25;;;29.15;;
21360;SDS011;10839;43.206;23.550;2024-03-02T03:33:29;58.90;;;29.90;;
21360;SDS011;10839;43.206;23.550;2024-03-02T03:35:55;49.28;;;26.27;;
21360;SDS011;10839;43.206;23.550;2024-03-02T03:38:20;48.67;;;26.27;;
21360;SDS011;10839;43.206;23.550;2024-03-02T03:40:46;48.72;;;25.38;;
21360;SDS011;10839;43.206;23.550;2024-03-02T03:43:12;46.85;;;25.58;;
21360;SDS011;10839;43.206;23.550;2024-03-02T03:45:38;44.70;;;24.45;;
21360;SDS011;10839;43.206;23.550;2024-03-02T03:48:03;40.97;;;21.20;;
21360;SDS011;10839;43.206;23.550;2024-03-02T03:50:29;46.70;;;23.55;;
21360;SDS011;10839;43.206;23.550;2024-03-02T03:52:55;42.20;;;22.88;;
21360;SDS011;10839;43.206;23.550;2024-03-02T03:55:20;57.30;;;29.83;;
21360;SDS011;10839;43.206;23.550;2024-03-02T03:57:46;69.85;;;36.05;;
21360;SDS011;10839;43.206;23.550;2024-03-02T04:00:11;110.50;;;58.00;;
21360;SDS011;10839;43.206;23.550;2024-03-02T04:02:38;87.20;;;49.22;;
21360;SDS011;10839;43.206;23.550;2024-03-02T04:05:03;63.85;;;35.47;;
21360;SDS011;10839;43.206;23.550;2024-03-02T04:07:34;45.35;;;25.20;;
21360;SDS011;10839;43.206;23.550;2024-03-02T04:10:05;43.75;;;24.00;;
21360;SDS011;10839;43.206;23.550;2024-03-02T04:12:33;38.08;;;21.45;;
21360;SDS011;10839;43.206;23.550;2024-03-02T04:15:00;33.97;;;19.80;;
21360;SDS011;10839;43.206;23.550;2024-03-02T04:17:27;33.65;;;18.35;;
21360;SDS011;10839;43.206;23.550;2024-03-02T04:19:52;35.88;;;18.13;;
21360;SDS011;10839;43.206;23.550;2024-03-02T04:22:18;31.17;;;18.67;;
21360;SDS011;10839;43.206;23.550;2024-03-02T04:24:43;49.63;;;27.13;;
21360;SDS011;10839;43.206;23.550;2024-03-02T04:27:09;113.10;;;60.30;;
21360;SDS011;10839;43.206;23.550;2024-03-02T04:29:34;118.18;;;64.53;;
21360;SDS011;10839;43.206;23.550;2024-03-02T04:32:00;53.33;;;30.00;;
21360;SDS011;10839;43.206;23.550;2024-03-02T04:34:25;51.35;;;28.00;;
21360;SDS011;10839;43.206;23.550;2024-03-02T04:36:51;43.42;;;24.25;;
21360;SDS011;10839;43.206;23.550;2024-03-02T04:39:16;34.38;;;18.73;;
21360;SDS011;10839;43.206;23.550;2024-03-02T04:41:42;32.45;;;19.33;;
21360;SDS011;10839;43.206;23.550;2024-03-02T04:44:07;31.70;;;16.83;;
21360;SDS011;10839;43.206;23.550;2024-03-02T04:46:33;29.95;;;18.10;;
21360;SDS011;10839;43.206;23.550;2024-03-02T04:48:58;31.83;;;18.27;;
21360;SDS011;10839;43.206;23.550;2024-03-02T04:51:24;35.80;;;20.05;;
21360;SDS011;10839;43.206;23.550;2024-03-02T04:53:49;34.45;;;18.95;;
21360;SDS011;10839;43.206;23.550;2024-03-02T04:56:15;31.63;;;17.50;;
21360;SDS011;10839;43.206;23.550;2024-03-02T04:59:05;29.25;;;16.20;;
21360;SDS011;10839;43.206;23.550;2024-03-02T05:01:31;31.50;;;17.25;;
21360;SDS011;10839;43.206;23.550;2024-03-02T05:03:58;27.17;;;15.80;;
21360;SDS011;10839;43.206;23.550;2024-03-02T05:06:23;37.70;;;22.23;;
21360;SDS011;10839;43.206;23.550;2024-03-02T05:08:49;79.30;;;44.40;;
21360;SDS011;10839;43.206;23.550;2024-03-02T05:11:14;225.88;;;124.50;;
21360;SDS011;10839;43.206;23.550;2024-03-02T05:16:24;56.55;;;31.75;;
21360;SDS011;10839;43.206;23.550;2024-03-02T05:18:49;36.33;;;21.77;;
21360;SDS011;10839;43.206;23.550;2024-03-02T05:21:15;26.67;;;16.15;;
21360;SDS011;10839;43.206;23.550;2024-03-02T05:23:40;26.02;;;15.35;;
21360;SDS011;10839;43.206;23.550;2024-03-02T05:26:06;27.20;;;15.23;;
21360;SDS011;10839;43.206;23.550;2024-03-02T05:28:31;25.67;;;15.27;;
21360;SDS011;10839;43.206;23.550;2024-03-02T05:30:57;28.00;;;16.23;;
21360;SDS011;10839;43.206;23.550;2024-03-02T05:33:22;24.38;;;15.68;;
21360;SDS011;10839;43.206;23.550;2024-03-02T05:35:48;25.65;;;15.73;;
21360;SDS011;10839;43.206;23.550;2024-03-02T05:38:15;32.45;;;17.80;;
21360;SDS011;10839;43.206;23.550;2024-03-02T05:40:40;25.23;;;15.43;;
21360;SDS011;10839;43.206;23.550;2024-03-02T05:43:06;26.70;;;15.52;;
21360;SDS011;10839;43.206;23.550;2024-03-02T05:45:31;58.03;;;32.10;;
21360;SDS011;10839;43.206;23.550;2024-03-02T05:47:57;93.28;;;50.28;;
21360;SDS011;10839;43.206;23.550;2024-03-02T05:50:22;39.72;;;23.40;;
21360;SDS011;10839;43.206;23.550;2024-03-02T05:52:48;30.88;;;18.80;;
21360;SDS011;10839;43.206;23.550;2024-03-02T05:55:13;49.42;;;29.05;;
21360;SDS011;10839;43.206;23.550;2024-03-02T05:57:40;49.00;;;29.38;;
21360;SDS011;10839;43.206;23.550;2024-03-02T06:00:08;31.33;;;18.25;;
21360;SDS011;10839;43.206;23.550;2024-03-02T06:02:40;33.58;;;19.58;;
21360;SDS011;10839;43.206;23.550;2024-03-02T06:05:06;28.52;;;17.02;;
21360;SDS011;10839;43.206;23.550;2024-03-02T06:07:34;28.60;;;16.83;;
21360;SDS011;10839;43.206;23.550;2024-03-02T06:10:00;28.70;;;16.65;;
21360;SDS011;10839;43.206;23.550;2024-03-02T06:12:25;26.08;;;15.75;;
21360;SDS011;10839;43.206;23.550;2024-03-02T06:14:51;26.88;;;16.75;;
21360;SDS011;10839;43.206;23.550;2024-03-02T06:17:16;24.38;;;16.13;;
21360;SDS011;10839;43.206;23.550;2024-03-02T06:19:42;25.10;;;16.20;;
21360;SDS011;10839;43.206;23.550;2024-03-02T06:22:07;31.15;;;17.40;;
21360;SDS011;10839;43.206;23.550;2024-03-02T06:24:36;25.75;;;17.30;;
21360;SDS011;10839;43.206;23.550;2024-03-02T06:27:03;26.75;;;17.75;;
21360;SDS011;10839;43.206;23.550;2024-03-02T06:29:29;25.67;;;16.65;;
21360;SDS011;10839;43.206;23.550;2024-03-02T06:31:54;26.95;;;17.80;;
21360;SDS011;10839;43.206;23.550;2024-03-02T06:34:20;27.25;;;17.58;;
21360;SDS011;10839;43.206;23.550;2024-03-02T06:36:45;27.88;;;17.27;;
21360;SDS011;10839;43.206;23.550;2024-03-02T06:39:11;24.73;;;16.30;;
21360;SDS011;10839;43.206;23.550;2024-03-02T06:41:37;24.50;;;16.77;;
21360;SDS011;10839;43.206;23.550;2024-03-02T06:44:03;24.45;;;16.85;;
21360;SDS011;10839;43.206;23.550;2024-03-02T06:46:28;24.85;;;16.02;;
21360;SDS011;10839;43.206;23.550;2024-03-02T06:48:54;26.02;;;17.08;;
21360;SDS011;10839;43.206;23.550;2024-03-02T06:51:20;24.27;;;16.73;;
21360;SDS011;10839;43.206;23.550;2024-03-02T06:53:45;21.45;;;13.82;;
21360;SDS011;10839;43.206;23.550;2024-03-02T06:56:11;24.58;;;15.88;;
21360;SDS011;10839;43.206;23.550;2024-03-02T06:58:37;26.63;;;16.65;;
21360;SDS011;10839;43.206;23.550;2024-03-02T07:01:02;25.48;;;18.05;;
21360;SDS011;10839;43.206;23.550;2024-03-02T07:03:28;29.98;;;19.80;;
21360;SDS011;10839;43.206;23.550;2024-03-02T07:05:54;25.80;;;18.00;;
21360;SDS011;10839;43.206;23.550;2024-03-02T07:08:19;28.15;;;19.20;;
21360;SDS011;10839;43.206;23.550;2024-03-02T07:10:45;43.80;;;28.73;;
21360;SDS011;10839;43.206;23.550;2024-03-02T07:13:10;182.80;;;112.03;;
21360;SDS011;10839;43.206;23.550;2024-03-02T07:15:36;36.72;;;25.67;;
21360;SDS011;10839;43.206;23.550;2024-03-02T07:18:10;37.58;;;24.33;;
21360;SDS011;10839;43.206;23.550;2024-03-02T07:20:36;41.05;;;26.88;;
21360;SDS011;10839;43.206;23.550;2024-03-02T07:23:01;42.38;;;28.48;;
21360;SDS011;10839;43.206;23.550;2024-03-02T07:25:26;46.03;;;29.15;;
21360;SDS011;10839;43.206;23.550;2024-03-02T07:27:52;35.58;;;22.58;;
21360;SDS011;10839;43.206;23.550;2024-03-02T07:30:18;28.30;;;18.63;;
21360;SDS011;10839;43.206;23.550;2024-03-02T07:32:44;28.08;;;20.20;;
21360;SDS011;10839;43.206;23.550;2024-03-02T07:35:11;36.38;;;23.23;;
21360;SDS011;10839;43.206;23.550;2024-03-02T07:37:40;33.83;;;23.08;;
21360;SDS011;10839;43.206;23.550;2024-03-02T07:40:06;26.17;;;18.30;;
21360;SDS011;10839;43.206;23.550;2024-03-02T07:42:36;19.75;;;15.27;;
21360;SDS011;10839;43.206;23.550;2024-03-02T07:45:05;17.88;;;13.70;;
21360;SDS011;10839;43.206;23.550;2024-03-02T07:47:32;18.30;;;14.48;;
21360;SDS011;10839;43.206;23.550;2024-03-02T07:49:59;16.00;;;11.70;;
21360;SDS011;10839;43.206;23.550;2024-03-02T07:52:25;19.90;;;13.95;;
21360;SDS011;10839;43.206;23.550;2024-03-02T07:54:50;19.85;;;14.57;;
21360;SDS011;10839;43.206;23.550;2024-03-02T07:57:16;27.63;;;18.80;;
21360;SDS011;10839;43.206;23.550;2024-03-02T07:59:41;27.10;;;18.45;;
21360;SDS011;10839;43.206;23.550;2024-03-02T08:02:08;23.35;;;15.38;;
21360;SDS011;10839;43.206;23.550;2024-03-02T08:04:33;17.63;;;13.55;;
21360;SDS011;10839;43.206;23.550;2024-03-02T08:06:59;30.35;;;17.52;;
21360;SDS011;10839;43.206;23.550;2024-03-02T08:09:25;26.48;;;16.33;;
21360;SDS011;10839;43.206;23.550;2024-03-02T08:11:51;19.38;;;14.35;;
21360;SDS011;10839;43.206;23.550;2024-03-02T08:14:16;19.48;;;14.52;;
21360;SDS011;10839;43.206;23.550;2024-03-02T08:16:42;16.48;;;12.80;;
21360;SDS011;10839;43.206;23.550;2024-03-02T08:19:07;20.73;;;14.85;;
21360;SDS011;10839;43.206;23.550;2024-03-02T08:21:34;19.55;;;13.48;;
21360;SDS011;10839;43.206;23.550;2024-03-02T08:24:00;18.85;;;14.18;;
21360;SDS011;10839;43.206;23.550;2024-03-02T08:26:27;16.65;;;12.85;;
21360;SDS011;10839;43.206;23.550;2024-03-02T08:28:55;15.90;;;12.68;;
21360;SDS011;10839;43.206;23.550;2024-03-02T08:31:21;16.38;;;11.80;;
21360;SDS011;10839;43.206;23.550;2024-03-02T08:33:46;16.63;;;12.32;;
21360;SDS011;10839;43.206;23.550;2024-03-02T08:36:11;16.75;;;12.07;;
21360;SDS011;10839;43.206;23.550;2024-03-02T08:38:37;23.50;;;15.35;;
21360;SDS011;10839;43.206;23.550;2024-03-02T08:41:03;36.40;;;24.20;;
21360;SDS011;10839;43.206;23.550;2024-03-02T08:43:29;25.70;;;16.92;;
21360;SDS011;10839;43.206;23.550;2024-03-02T08:45:54;30.63;;;20.15;;
21360;SDS011;10839;43.206;23.550;2024-03-02T08:48:20;34.92;;;22.00;;
21360;SDS011;10839;43.206;23.550;2024-03-02T08:50:46;26.65;;;18.67;;
21360;SDS011;10839;43.206;23.550;2024-03-02T08:53:11;28.38;;;20.15;;
21360;SDS011;10839;43.206;23.550;2024-03-02T08:55:37;24.67;;;18.88;;
21360;SDS011;10839;43.206;23.550;2024-03-02T08:58:03;17.58;;;13.65;;
21360;SDS011;10839;43.206;23.550;2024-03-02T09:00:28;17.13;;;12.90;;
21360;SDS011;10839;43.206;23.550;2024-03-02T09:02:54;15.65;;;11.95;;
21360;SDS011;10839;43.206;23.550;2024-03-02T09:05:20;25.20;;;17.27;;
21360;SDS011;10839;43.206;23.550;2024-03-02T09:07:45;31.42;;;18.73;;
21360;SDS011;10839;43.206;23.550;2024-03-02T09:10:11;20.65;;;14.60;;
21360;SDS011;10839;43.206;23.550;2024-03-02T09:12:36;16.88;;;12.95;;
21360;SDS011;10839;43.206;23.550;2024-03-02T09:15:02;17.02;;;12.90;;
21360;SDS011;10839;43.206;23.550;2024-03-02T09:17:29;17.33;;;13.55;;
21360;SDS011;10839;43.206;23.550;2024-03-02T09:19:55;18.17;;;13.68;;
21360;SDS011;10839;43.206;23.550;2024-03-02T09:22:21;70.50;;;46.83;;
21360;SDS011;10839;43.206;23.550;2024-03-02T09:24:47;43.95;;;29.15;;
21360;SDS011;10839;43.206;23.550;2024-03-02T09:27:12;27.05;;;19.23;;
21360;SDS011;10839;43.206;23.550;2024-03-02T09:29:38;23.60;;;17.30;;
21360;SDS011;10839;43.206;23.550;2024-03-02T09:32:04;35.22;;;23.90;;
21360;SDS011;10839;43.206;23.550;2024-03-02T09:34:31;25.05;;;18.45;;
21360;SDS011;10839;43.206;23.550;2024-03-02T09:36:56;27.08;;;20.92;;
21360;SDS011;10839;43.206;23.550;2024-03-02T09:39:22;22.33;;;16.88;;
21360;SDS011;10839;43.206;23.550;2024-03-02T09:41:48;21.13;;;15.88;;
21360;SDS011;10839;43.206;23.550;2024-03-02T09:44:13;18.70;;;14.18;;
21360;SDS011;10839;43.206;23.550;2024-03-02T09:46:39;19.45;;;14.65;;
21360;SDS011;10839;43.206;23.550;2024-03-02T09:49:05;19.65;;;14.68;;
21360;SDS011;10839;43.206;23.550;2024-03-02T09:51:31;23.17;;;15.35;;
21360;SDS011;10839;43.206;23.550;2024-03-02T09:53:57;19.40;;;14.50;;
21360;SDS011;10839;43.206;23.550;2024-03-02T09:56:22;22.35;;;16.63;;
21360;SDS011;10839;43.206;23.550;2024-03-02T09:58:48;19.55;;;15.13;;
21360;SDS011;10839;43.206;23.550;2024-03-02T10:01:14;18.30;;;14.45;;
21360;SDS011;10839;43.206;23.550;2024-03-02T10:03:40;20.05;;;14.95;;
21360;SDS011;10839;43.206;23.550;2024-03-02T10:06:22;14.88;;;12.10;;
21360;SDS011;10839;43.206;23.550;2024-03-02T10:08:48;13.20;;;10.30;;
21360;SDS011;10839;43.206;23.550;2024-03-02T10:11:34;15.38;;;11.13;;
21360;SDS011;10839;43.206;23.550;2024-03-02T10:14:09;18.38;;;13.32;;
21360;SDS011;10839;43.206;23.550;2024-03-02T10:16:43;15.35;;;12.25;;
21360;SDS011;10839;43.206;23.550;2024-03-02T10:21:54;65.35;;;38.28;;
21360;SDS011;10839;43.206;23.550;2024-03-02T10:24:21;109.95;;;67.78;;
21360;SDS011;10839;43.206;23.550;2024-03-02T10:26:47;88.60;;;55.35;;
21360;SDS011;10839;43.206;23.550;2024-03-02T10:29:13;27.70;;;19.67;;
21360;SDS011;10839;43.206;23.550;2024-03-02T10:31:40;18.27;;;12.77;;
21360;SDS011;10839;43.206;23.550;2024-03-02T10:34:09;15.23;;;11.50;;
21360;SDS011;10839;43.206;23.550;2024-03-02T10:36:36;12.60;;;9.00;;
21360;SDS011;10839;43.206;23.550;2024-03-02T10:39:03;8.05;;;6.53;;
21360;SDS011;10839;43.206;23.550;2024-03-02T10:41:32;8.63;;;7.20;;
21360;SDS011;10839;43.206;23.550;2024-03-02T10:43:59;10.50;;;8.68;;
21360;SDS011;10839;43.206;23.550;2024-03-02T10:46:28;12.75;;;9.80;;
21360;SDS011;10839;43.206;23.550;2024-03-02T10:48:56;54.78;;;35.80;;
21360;SDS011;10839;43.206;23.550;2024-03-02T10:51:26;49.45;;;33.00;;
21360;SDS011;10839;43.206;23.550;2024-03-02T10:53:54;35.25;;;23.88;;
21360;SDS011;10839;43.206;23.550;2024-03-02T10:56:29;24.77;;;17.48;;
21360;SDS011;10839;43.206;23.550;2024-03-02T11:01:29;18.90;;;13.50;;
21360;SDS011;10839;43.206;23.550;2024-03-02T11:03:56;17.60;;;10.77;;
21360;SDS011;10839;43.206;23.550;2024-03-02T11:06:23;10.55;;;7.90;;
21360;SDS011;10839;43.206;23.550;2024-03-02T11:08:52;10.38;;;8.10;;
21360;SDS011;10839;43.206;23.550;2024-03-02T11:11:21;12.70;;;9.25;;
21360;SDS011;10839;43.206;23.550;2024-03-02T11:13:54;9.40;;;7.20;;
21360;SDS011;10839;43.206;23.550;2024-03-02T11:16:43;8.10;;;7.28;;
21360;SDS011;10839;43.206;23.550;2024-03-02T11:26:48;9.00;;;7.50;;
21360;SDS011;10839;43.206;23.550;2024-03-02T11:32:01;88.53;;;51.67;;
21360;SDS011;10839;43.206;23.550;2024-03-02T11:34:31;25.77;;;17.27;;
21360;SDS011;10839;43.206;23.550;2024-03-02T11:37:03;18.27;;;13.18;;
21360;SDS011;10839;43.206;23.550;2024-03-02T11:39:29;14.68;;;10.85;;
21360;SDS011;10839;43.206;23.550;2024-03-02T11:41:56;47.75;;;28.50;;
21360;SDS011;10839;43.206;23.550;2024-03-02T11:44:25;27.17;;;16.17;;
21360;SDS011;10839;43.206;23.550;2024-03-02T11:46:52;16.10;;;11.38;;
21360;SDS011;10839;43.206;23.550;2024-03-02T11:49:36;16.73;;;10.95;;
21360;SDS011;10839;43.206;23.550;2024-03-02T11:52:15;13.40;;;9.45;;
21360;SDS011;10839;43.206;23.550;2024-03-02T11:54:43;11.43;;;8.80;;
21360;SDS011;10839;43.206;23.550;2024-03-02T11:57:14;12.65;;;9.10;;
21360;SDS011;10839;43.206;23.550;2024-03-02T11:59:44;9.88;;;7.85;;
21360;SDS011;10839;43.206;23.550;2024-03-02T12:02:17;11.90;;;8.85;;
21360;SDS011;10839;43.206;23.550;2024-03-02T12:07:18;10.98;;;9.63;;
21360;SDS011;10839;43.206;23.550;2024-03-02T12:09:47;11.30;;;7.97;;
21360;SDS011;10839;43.206;23.550;2024-03-02T12:12:13;12.90;;;10.57;;
21360;SDS011;10839;43.206;23.550;2024-03-02T12:14:49;13.65;;;11.35;;
21360;SDS011;10839;43.206;23.550;2024-03-02T12:17:16;16.45;;;12.30;;
21360;SDS011;10839;43.206;23.550;2024-03-02T12:19:41;14.15;;;11.77;;
21360;SDS011;10839;43.206;23.550;2024-03-02T12:22:07;14.98;;;11.82;;
21360;SDS011;10839;43.206;23.550;2024-03-02T12:24:32;24.52;;;19.90;;
21360;SDS011;10839;43.206;23.550;2024-03-02T12:26:58;20.15;;;17.58;;
21360;SDS011;10839;43.206;23.550;2024-03-02T12:29:24;17.90;;;15.90;;
21360;SDS011;10839;43.206;23.550;2024-03-02T12:31:52;14.57;;;13.07;;
21360;SDS011;10839;43.206;23.550;2024-03-02T12:34:21;11.50;;;9.23;;
21360;SDS011;10839;43.206;23.550;2024-03-02T12:36:47;10.95;;;9.30;;
21360;SDS011;10839;43.206;23.550;2024-03-02T12:39:15;11.10;;;8.93;;
21360;SDS011;10839;43.206;23.550;2024-03-02T12:41:41;12.18;;;9.32;;
21360;SDS011;10839;43.206;23.550;2024-03-02T12:44:07;12.55;;;8.80;;
21360;SDS011;10839;43.206;23.550;2024-03-02T12:46:34;11.23;;;8.85;;
21360;SDS011;10839;43.206;23.550;2024-03-02T12:49:11;10.23;;;8.45;;
21360;SDS011;10839;43.206;23.550;2024-03-02T12:51:38;10.63;;;9.13;;
21360;SDS011;10839;43.206;23.550;2024-03-02T12:54:11;11.48;;;9.60;;
21360;SDS011;10839;43.206;23.550;2024-03-02T12:56:37;12.88;;;9.75;;
21360;SDS011;10839;43.206;23.550;2024-03-02T12:59:03;17.08;;;12.85;;
21360;SDS011;10839;43.206;23.550;2024-03-02T13:01:29;17.17;;;11.40;;
21360;SDS011;10839;43.206;23.550;2024-03-02T13:03:56;11.13;;;9.57;;
21360;SDS011;10839;43.206;23.550;2024-03-02T13:09:30;82.65;;;50.22;;
21360;SDS011;10839;43.206;23.550;2024-03-02T13:11:55;84.80;;;51.80;;
21360;SDS011;10839;43.206;23.550;2024-03-02T13:14:22;31.85;;;20.98;;
21360;SDS011;10839;43.206;23.550;2024-03-02T13:16:50;12.93;;;10.57;;
21360;SDS011;10839;43.206;23.550;2024-03-02T13:19:17;26.58;;;17.85;;
21360;SDS011;10839;43.206;23.550;2024-03-02T13:21:46;17.65;;;12.52;;
21360;SDS011;10839;43.206;23.550;2024-03-02T13:24:12;32.47;;;18.42;;
21360;SDS011;10839;43.206;23.550;2024-03-02T13:26:37;31.83;;;18.25;;
21360;SDS011;10839;43.206;23.550;2024-03-02T13:29:03;43.78;;;26.73;;
21360;SDS011;10839;43.206;23.550;2024-03-02T13:31:28;48.25;;;31.08;;
21360;SDS011;10839;43.206;23.550;2024-03-02T13:33:54;26.48;;;18.02;;
21360;SDS011;10839;43.206;23.550;2024-03-02T13:36:19;23.02;;;15.65;;
21360;SDS011;10839;43.206;23.550;2024-03-02T13:38:45;22.35;;;14.88;;
21360;SDS011;10839;43.206;23.550;2024-03-02T13:41:11;18.52;;;15.75;;
21360;SDS011;10839;43.206;23.550;2024-03-02T13:43:37;49.78;;;34.42;;
21360;SDS011;10839;43.206;23.550;2024-03-02T13:46:04;51.42;;;36.15;;
21360;SDS011;10839;43.206;23.550;2024-03-02T13:48:29;28.65;;;22.10;;
21360;SDS011;10839;43.206;23.550;2024-03-02T13:50:56;27.17;;;22.33;;
21360;SDS011;10839;43.206;23.550;2024-03-02T13:53:21;25.88;;;20.58;;
21360;SDS011;10839;43.206;23.550;2024-03-02T13:55:47;17.52;;;14.40;;
21360;SDS011;10839;43.206;23.550;2024-03-02T13:58:13;19.02;;;14.90;;
21360;SDS011;10839;43.206;23.550;2024-03-02T14:00:38;22.05;;;18.42;;
21360;SDS011;10839;43.206;23.550;2024-03-02T14:03:05;17.92;;;14.98;;
21360;SDS011;10839;43.206;23.550;2024-03-02T14:05:32;19.48;;;15.73;;
21360;SDS011;10839;43.206;23.550;2024-03-02T14:07:58;22.70;;;18.65;;
21360;SDS011;10839;43.206;23.550;2024-03-02T14:10:26;20.77;;;17.83;;
21360;SDS011;10839;43.206;23.550;2024-03-02T14:12:52;18.33;;;16.25;;
21360;SDS011;10839;43.206;23.550;2024-03-02T14:15:18;55.10;;;33.15;;
21360;SDS011;10839;43.206;23.550;2024-03-02T14:17:43;49.70;;;32.40;;
21360;SDS011;10839;43.206;23.550;2024-03-02T14:20:09;26.38;;;18.08;;
21360;SDS011;10839;43.206;23.550;2024-03-02T14:22:37;17.83;;;13.68;;
21360;SDS011;10839;43.206;23.550;2024-03-02T14:25:02;14.68;;;11.80;;
21360;SDS011;10839;43.206;23.550;2024-03-02T14:27:28;42.97;;;27.05;;
21360;SDS011;10839;43.206;23.550;2024-03-02T14:29:54;79.28;;;47.15;;
21360;SDS011;10839;43.206;23.550;2024-03-02T14:32:20;27.73;;;19.63;;
21360;SDS011;10839;43.206;23.550;2024-03-02T14:34:45;29.35;;;20.80;;
21360;SDS011;10839;43.206;23.550;2024-03-02T14:37:12;80.88;;;34.88;;